createdAt,value
2018-05-01T00:01:08.529Z,91.50
2018-05-01T00:03:34.912Z,91.40
2018-05-01T00:06:01.257Z,91.40
2018-05-01T00:08:27.546Z,91.70
2018-05-01T00:10:53.804Z,91.80
2018-05-01T00:13:20.142Z,92.10
2018-05-01T00:15:46.495Z,92.60
2018-05-01T00:18:12.827Z,92.20
2018-05-01T00:20:39.246Z,92.40
2018-05-01T00:23:05.623Z,92.40
2018-05-01T00:25:31.943Z,92.20
2018-05-01T00:27:58.772Z,92.30
2018-05-01T00:30:25.164Z,92.30
2018-05-01T00:32:51.502Z,92.50
2018-05-01T00:35:17.823Z,92.20
2018-05-01T00:37:44.910Z,92.80
2018-05-01T00:40:12.038Z,92.80
2018-05-01T00:42:38.436Z,92.60
2018-05-01T00:45:05.602Z,92.80
2018-05-01T00:47:31.927Z,92.70
2018-05-01T00:49:58.621Z,92.60
2018-05-01T00:52:37.148Z,92.40
2018-05-01T00:55:03.516Z,92.50
2018-05-01T00:57:29.899Z,92.20
2018-05-01T00:59:56.207Z,92.70
2018-05-01T01:02:22.639Z,93.40
2018-05-01T01:04:48.974Z,92.40
2018-05-01T01:07:15.323Z,92.20
2018-05-01T01:09:41.711Z,92.00
2018-05-01T01:12:08.794Z,92.60
2018-05-01T01:14:35.363Z,92.50
2018-05-01T01:17:01.749Z,93.00
2018-05-01T01:19:28.070Z,92.10
2018-05-01T01:21:55.158Z,92.80
2018-05-01T01:24:21.440Z,92.80
2018-05-01T01:26:47.731Z,92.50
2018-05-01T01:29:14.060Z,92.10
2018-05-01T01:31:40.357Z,92.50
2018-05-01T01:34:06.677Z,92.30
2018-05-01T01:36:33.502Z,92.60
2018-05-01T01:38:59.627Z,92.50
2018-05-01T01:41:26.450Z,92.40
2018-05-01T01:43:52.512Z,92.20
2018-05-01T01:46:19.322Z,92.40
2018-05-01T01:48:45.410Z,92.40
2018-05-01T01:51:11.498Z,92.60
2018-05-01T01:53:37.554Z,92.50
2018-05-01T01:56:03.664Z,92.30
2018-05-01T01:58:29.747Z,92.80
2018-05-01T02:00:55.825Z,92.20
2018-05-01T02:03:21.911Z,92.70
2018-05-01T02:05:48.012Z,92.60
2018-05-01T02:08:14.119Z,93.50
2018-05-01T02:10:40.236Z,93.10
2018-05-01T02:13:06.337Z,92.90
2018-05-01T02:15:33.142Z,94.60
2018-05-01T02:17:59.202Z,94.20
2018-05-01T02:20:26.045Z,95.10
2018-05-01T02:22:52.873Z,95.20
2018-05-01T02:25:18.938Z,95.20
2018-05-01T02:27:45.035Z,95.50
2018-05-01T02:30:11.863Z,95.20
2018-05-01T02:32:37.950Z,94.70
2018-05-01T02:35:04.033Z,95.50
2018-05-01T02:37:30.918Z,96.00
2018-05-01T02:39:56.984Z,95.90
2018-05-01T02:42:23.785Z,95.60
2018-05-01T02:44:49.847Z,95.70
2018-05-01T02:47:15.914Z,95.50
2018-05-01T02:49:41.987Z,95.20
2018-05-01T02:52:08.100Z,95.80
2018-05-01T02:54:34.979Z,95.80
2018-05-01T02:57:01.885Z,95.80
2018-05-01T02:59:28.024Z,95.70
2018-05-01T03:01:54.895Z,96.30
2018-05-01T03:04:20.975Z,96.20
2018-05-01T03:06:47.089Z,96.10
2018-05-01T03:09:13.160Z,96.40
2018-05-01T03:11:40.014Z,97.30
2018-05-01T03:14:06.856Z,96.80
2018-05-01T03:16:33.003Z,96.70
2018-05-01T03:18:59.112Z,97.10
2018-05-01T03:21:25.240Z,96.90
2018-05-01T03:23:51.354Z,96.80
2018-05-01T03:26:18.260Z,96.70
2018-05-01T03:28:44.426Z,96.40
2018-05-01T03:31:10.550Z,96.60
2018-05-01T03:33:36.635Z,97.20
2018-05-01T03:36:02.810Z,96.70
2018-05-01T03:38:29.018Z,96.80
2018-05-01T03:40:55.876Z,96.70
2018-05-01T03:43:21.976Z,96.70
2018-05-01T03:45:48.069Z,97.10
2018-05-01T03:48:14.170Z,96.90
2018-05-01T03:50:41.007Z,97.00
2018-05-01T03:53:07.140Z,96.90
2018-05-01T03:55:33.267Z,97.20
2018-05-01T03:57:59.368Z,96.90
2018-05-01T04:00:25.562Z,96.80
2018-05-01T04:02:51.651Z,97.00
2018-05-01T04:05:17.771Z,96.70
2018-05-01T04:07:43.906Z,96.60
2018-05-01T04:10:10.023Z,96.40
2018-05-01T04:12:36.099Z,96.60
2018-05-01T04:15:02.242Z,95.90
2018-05-01T04:17:28.380Z,96.10
2018-05-01T04:19:54.460Z,95.80
2018-05-01T04:22:20.590Z,95.50
2018-05-01T04:24:47.485Z,95.90
2018-05-01T04:27:14.346Z,96.00
2018-05-01T04:29:40.444Z,96.20
2018-05-01T04:32:06.538Z,95.90
2018-05-01T04:34:32.666Z,95.90
2018-05-01T04:36:58.765Z,95.70
2018-05-01T04:39:24.888Z,95.50
2018-05-01T04:41:50.975Z,94.90
2018-05-01T04:44:17.066Z,95.30
2018-05-01T04:46:43.138Z,95.10
2018-05-01T04:49:09.965Z,95.00
2018-05-01T04:51:36.385Z,95.00
2018-05-01T04:54:03.245Z,94.50
2018-05-01T04:56:29.405Z,94.50
2018-05-01T04:58:55.498Z,94.20
2018-05-01T05:01:21.615Z,94.40
2018-05-01T05:03:48.457Z,94.00
2018-05-01T05:06:14.617Z,94.00
2018-05-01T05:08:40.755Z,94.20
2018-05-01T05:11:07.010Z,93.70
2018-05-01T05:13:33.174Z,93.40
2018-05-01T05:15:59.301Z,93.40
2018-05-01T05:18:26.119Z,93.50
2018-05-01T05:20:52.262Z,93.40
2018-05-01T05:23:18.397Z,93.30
2018-05-01T05:25:45.256Z,93.20
2018-05-01T05:28:12.106Z,93.00
2018-05-01T05:30:38.174Z,93.00
2018-05-01T05:33:04.266Z,92.50
2018-05-01T05:35:30.370Z,92.60
2018-05-01T05:37:56.421Z,92.40
2018-05-01T05:40:23.209Z,91.40
2018-05-01T05:42:49.399Z,91.50
2018-05-01T05:45:15.424Z,91.70
2018-05-01T05:47:41.541Z,91.50
2018-05-01T05:50:07.631Z,91.00
2018-05-01T05:52:33.737Z,90.90
2018-05-01T05:54:59.789Z,90.50
2018-05-01T05:57:25.838Z,90.20
2018-05-01T05:59:51.926Z,90.60
2018-05-01T06:02:17.978Z,89.80
2018-05-01T06:04:44.054Z,89.30
2018-05-01T06:07:10.118Z,89.20
2018-05-01T06:09:36.943Z,89.80
2018-05-01T06:12:02.981Z,89.50
2018-05-01T06:14:29.782Z,88.70
2018-05-01T06:16:55.838Z,88.50
2018-05-01T06:19:21.881Z,88.10
2018-05-01T06:21:48.804Z,87.10
2018-05-01T06:24:15.611Z,87.00
2018-05-01T06:26:41.685Z,87.00
2018-05-01T06:29:08.502Z,86.70
2018-05-01T06:31:34.577Z,86.80
2018-05-01T06:34:00.665Z,85.40
2018-05-01T06:36:26.705Z,83.40
2018-05-01T06:38:53.521Z,83.00
2018-05-01T06:41:19.569Z,83.50
2018-05-01T06:43:46.383Z,84.00
2018-05-01T06:46:12.441Z,83.90
2018-05-01T06:48:39.282Z,82.50
2018-05-01T06:51:06.080Z,79.60
2018-05-01T06:53:32.140Z,79.50
2018-05-01T06:55:58.190Z,79.50
2018-05-01T06:58:24.261Z,78.00
2018-05-01T07:00:50.335Z,77.20
2018-05-01T07:03:17.150Z,72.60
2018-05-01T07:05:43.285Z,72.60
2018-05-01T07:08:09.333Z,69.50
2018-05-01T07:10:35.391Z,70.40
2018-05-01T07:13:01.474Z,73.00
2018-05-01T07:15:28.259Z,73.40
2018-05-01T07:17:54.328Z,73.30
2018-05-01T07:20:21.149Z,73.30
2018-05-01T07:22:47.214Z,73.20
2018-05-01T07:25:13.266Z,68.50
2018-05-01T07:27:39.346Z,63.10
2018-05-01T07:30:06.148Z,51.80
2018-05-01T07:32:32.202Z,51.70
2018-05-01T07:34:59.037Z,45.70
2018-05-01T07:37:25.086Z,45.70
2018-05-01T07:39:51.910Z,47.80
2018-05-01T07:42:17.958Z,47.90
2018-05-01T07:44:44.791Z,44.30
2018-05-01T07:47:11.583Z,42.20
2018-05-01T07:49:37.645Z,41.30
2018-05-01T07:52:03.693Z,46.10
2018-05-01T07:54:29.846Z,47.60
2018-05-01T07:56:55.922Z,45.70
2018-05-01T07:59:22.010Z,45.50
2018-05-01T08:01:48.062Z,44.70
2018-05-01T08:04:14.894Z,48.00
2018-05-01T08:06:41.008Z,47.90
2018-05-01T08:09:07.066Z,47.50
2018-05-01T08:11:33.146Z,49.80
2018-05-01T08:13:59.205Z,46.00
2018-05-01T08:16:25.286Z,44.80
2018-05-01T08:18:51.365Z,44.20
2018-05-01T08:21:18.243Z,43.30
2018-05-01T08:23:44.301Z,43.30
2018-05-01T08:26:11.095Z,39.50
2018-05-01T08:28:37.918Z,38.30
2018-05-01T08:31:04.739Z,37.30
2018-05-01T08:33:30.846Z,34.60
2018-05-01T08:35:56.903Z,32.70
2018-05-01T08:38:22.985Z,34.50
2018-05-01T08:40:49.069Z,35.80
2018-05-01T08:43:16.249Z,33.50
2018-05-01T08:45:42.344Z,33.10
2018-05-01T08:48:08.436Z,33.20
2018-05-01T08:50:34.588Z,31.30
2018-05-01T08:53:01.233Z,30.70
2018-05-01T08:55:28.098Z,31.70
2018-05-01T08:57:54.210Z,30.90
2018-05-01T09:00:20.343Z,29.90
2018-05-01T09:02:46.451Z,28.60
2018-05-01T09:05:12.550Z,28.10
2018-05-01T09:07:38.879Z,27.30
2018-05-01T09:10:04.967Z,28.10
2018-05-01T09:12:31.067Z,29.30
2018-05-01T09:14:57.904Z,33.20
2018-05-01T09:17:24.759Z,35.60
2018-05-01T09:19:50.895Z,35.60
2018-05-01T09:22:17.068Z,36.30
2018-05-01T09:24:43.170Z,40.70
2018-05-01T09:27:09.310Z,39.70
2018-05-01T09:29:35.391Z,37.20
2018-05-01T09:32:01.469Z,37.80
2018-05-01T09:34:27.546Z,36.40
2018-05-01T09:36:54.401Z,31.60
2018-05-01T09:39:20.498Z,32.90
2018-05-01T09:41:46.566Z,34.20
2018-05-01T09:44:12.651Z,34.50
2018-05-01T09:46:39.470Z,32.90
2018-05-01T09:49:05.633Z,32.50
2018-05-01T09:51:31.725Z,35.00
2018-05-01T09:53:58.050Z,37.00
2018-05-01T09:56:24.371Z,39.30
2018-05-01T09:58:50.900Z,41.20
2018-05-01T10:01:17.206Z,40.30
2018-05-01T10:03:43.528Z,35.70
2018-05-01T10:06:09.889Z,33.30
2018-05-01T10:08:36.982Z,32.70
2018-05-01T10:11:04.087Z,33.70
2018-05-01T10:13:30.448Z,33.20
2018-05-01T10:15:56.865Z,32.50
2018-05-01T10:18:23.170Z,35.80
2018-05-01T10:20:49.532Z,38.70
2018-05-01T10:23:15.830Z,36.20
2018-05-01T10:25:42.187Z,35.40
2018-05-01T10:28:08.481Z,37.70
2018-05-01T10:30:34.803Z,39.30
2018-05-01T10:33:01.131Z,37.40
2018-05-01T10:35:27.500Z,36.60
2018-05-01T10:37:53.801Z,36.60
2018-05-01T10:40:20.121Z,33.60
2018-05-01T10:42:47.149Z,32.90
2018-05-01T10:45:14.214Z,37.30
2018-05-01T10:47:41.230Z,38.70
2018-05-01T10:50:07.529Z,38.30
2018-05-01T10:52:33.907Z,37.80
2018-05-01T10:55:00.964Z,38.00
2018-05-01T10:57:27.993Z,39.70
2018-05-01T10:59:55.031Z,39.40
2018-05-01T11:02:21.330Z,39.90
2018-05-01T11:04:47.620Z,40.20
2018-05-01T11:07:14.658Z,38.00
2018-05-01T11:09:40.954Z,37.70
2018-05-01T11:12:07.273Z,36.60
2018-05-01T11:14:33.578Z,38.40
2018-05-01T11:16:59.909Z,38.10
2018-05-01T11:19:26.942Z,34.70
2018-05-01T11:21:53.379Z,34.80
2018-05-01T11:24:19.707Z,33.30
2018-05-01T11:26:46.802Z,35.50
2018-05-01T11:29:13.266Z,35.00
2018-05-01T11:31:39.585Z,34.30
2018-05-01T11:34:05.878Z,38.00
2018-05-01T11:36:32.234Z,39.00
2018-05-01T11:38:58.510Z,38.20
2018-05-01T11:41:25.560Z,37.60
2018-05-01T11:43:52.586Z,38.50
2018-05-01T11:46:18.951Z,38.40
2018-05-01T11:48:45.194Z,35.50
2018-05-01T11:51:11.510Z,32.60
2018-05-01T11:53:37.804Z,29.90
2018-05-01T11:56:04.109Z,32.50
2018-05-01T11:58:30.480Z,33.80
2018-05-01T12:00:57.535Z,36.10
2018-05-01T12:03:23.915Z,35.90
2018-05-01T12:05:50.204Z,31.10
2018-05-01T12:08:17.544Z,31.70
2018-05-01T12:10:44.577Z,32.10
2018-05-01T12:13:10.897Z,31.10
2018-05-01T12:15:37.199Z,29.80
2018-05-01T12:18:03.485Z,28.10
2018-05-01T12:20:30.551Z,28.20
2018-05-01T12:22:56.911Z,28.20
2018-05-01T12:25:23.195Z,28.40
2018-05-01T12:27:50.230Z,30.80
2018-05-01T12:30:16.544Z,29.90
2018-05-01T12:32:42.841Z,30.90
2018-05-01T12:35:09.148Z,30.00
2018-05-01T12:37:35.446Z,29.50
2018-05-01T12:40:01.849Z,32.70
2018-05-01T12:42:28.205Z,33.20
2018-05-01T12:44:55.215Z,33.40
2018-05-01T12:47:21.563Z,33.00
2018-05-01T12:49:47.904Z,32.80
2018-05-01T12:52:14.237Z,33.10
2018-05-01T12:54:40.507Z,33.50
2018-05-01T12:57:07.556Z,33.40
2018-05-01T12:59:34.598Z,33.10
2018-05-01T13:02:00.983Z,32.10
2018-05-01T13:04:27.286Z,33.00
2018-05-01T13:06:53.604Z,32.70
2018-05-01T13:09:19.899Z,31.00
2018-05-01T13:11:46.278Z,31.20
2018-05-01T13:14:12.602Z,30.60
2018-05-01T13:16:38.918Z,32.30
2018-05-01T13:19:05.229Z,30.40
2018-05-01T13:21:31.526Z,30.20
2018-05-01T13:23:57.826Z,30.70
2018-05-01T13:26:24.136Z,31.60
2018-05-01T13:28:50.465Z,35.10
2018-05-01T13:31:17.520Z,34.70
2018-05-01T13:33:44.550Z,34.00
2018-05-01T13:36:11.626Z,33.10
2018-05-01T13:38:37.929Z,32.40
2018-05-01T13:41:04.260Z,32.00
2018-05-01T13:43:30.582Z,34.00
2018-05-01T13:45:56.950Z,34.90
2018-05-01T13:48:23.283Z,35.10
2018-05-01T13:50:49.622Z,35.30
2018-05-01T13:53:15.919Z,34.30
2018-05-01T13:55:43.008Z,34.90
2018-05-01T13:58:09.318Z,35.30
2018-05-01T14:00:36.392Z,36.70
2018-05-01T14:03:03.426Z,37.40
2018-05-01T14:05:29.714Z,37.60
2018-05-01T14:07:56.011Z,37.90
2018-05-01T14:10:22.324Z,36.50
2018-05-01T14:12:48.617Z,35.50
2018-05-01T14:15:14.902Z,35.90
2018-05-01T14:17:41.187Z,36.70
2018-05-01T14:20:08.267Z,35.70
2018-05-01T14:22:34.587Z,35.70
2018-05-01T14:25:00.882Z,32.50
2018-05-01T14:27:27.191Z,31.10
2018-05-01T14:29:53.521Z,30.00
2018-05-01T14:32:19.833Z,30.00
2018-05-01T14:34:46.139Z,29.60
2018-05-01T14:37:12.435Z,30.30
2018-05-01T14:39:38.729Z,30.60
2018-05-01T14:42:05.156Z,28.50
2018-05-01T14:44:31.382Z,28.40
2018-05-01T14:46:57.698Z,28.30
2018-05-01T14:49:24.027Z,27.20
2018-05-01T14:51:50.334Z,29.20
2018-05-01T14:54:17.378Z,32.10
2018-05-01T14:56:43.704Z,31.00
2018-05-01T14:59:10.799Z,31.20
2018-05-01T15:01:37.221Z,31.30
2018-05-01T15:04:04.220Z,29.40
2018-05-01T15:06:30.556Z,29.50
2018-05-01T15:08:56.925Z,31.40
2018-05-01T15:11:23.191Z,30.10
2018-05-01T15:13:49.750Z,31.70
2018-05-01T15:16:16.838Z,32.30
2018-05-01T15:18:43.146Z,31.70
2018-05-01T15:21:10.182Z,28.10
2018-05-01T15:23:36.541Z,27.50
2018-05-01T15:26:02.932Z,26.40
2018-05-01T15:28:29.226Z,27.00
2018-05-01T15:30:55.662Z,28.00
2018-05-01T15:33:22.005Z,28.70
2018-05-01T15:35:48.487Z,29.30
2018-05-01T15:38:14.818Z,29.60
2018-05-01T15:40:41.106Z,29.60
2018-05-01T15:43:07.405Z,29.90
2018-05-01T15:45:33.706Z,30.70
2018-05-01T15:48:00.749Z,29.80
2018-05-01T15:50:27.089Z,29.50
2018-05-01T15:52:53.428Z,29.10
2018-05-01T15:55:19.759Z,29.50
2018-05-01T15:57:46.793Z,30.80
2018-05-01T16:00:13.093Z,29.90
2018-05-01T16:02:39.396Z,30.50
2018-05-01T16:05:05.710Z,29.60
2018-05-01T16:07:32.012Z,28.50
2018-05-01T16:09:58.340Z,27.90
2018-05-01T16:12:24.662Z,26.90
2018-05-01T16:14:51.002Z,26.90
2018-05-01T16:17:18.843Z,27.40
2018-05-01T16:19:45.250Z,28.20
2018-05-01T16:22:11.848Z,29.50
2018-05-01T16:24:38.980Z,29.60
2018-05-01T16:27:05.366Z,29.50
2018-05-01T16:29:31.706Z,29.10
2018-05-01T16:31:58.054Z,29.40
2018-05-01T16:34:24.387Z,29.10
2018-05-01T16:36:50.701Z,27.60
2018-05-01T16:39:17.038Z,27.70
2018-05-01T16:41:43.379Z,27.90
2018-05-01T16:44:09.686Z,29.30
2018-05-01T16:46:36.048Z,29.60
2018-05-01T16:49:02.359Z,29.20
2018-05-01T16:51:28.691Z,29.50
2018-05-01T16:53:55.064Z,29.60
2018-05-01T16:56:22.134Z,30.00
2018-05-01T16:58:49.222Z,30.20
2018-05-01T17:01:15.533Z,30.20
2018-05-01T17:03:41.873Z,29.60
2018-05-01T17:06:08.195Z,30.40
2018-05-01T17:08:34.494Z,32.10
2018-05-01T17:11:01.531Z,32.00
2018-05-01T17:13:28.719Z,32.90
2018-05-01T17:15:55.034Z,31.50
2018-05-01T17:18:22.060Z,32.50
2018-05-01T17:20:48.365Z,32.90
2018-05-01T17:23:14.666Z,32.90
2018-05-01T17:25:40.966Z,33.10
2018-05-01T17:28:08.009Z,34.90
2018-05-01T17:30:35.080Z,35.40
2018-05-01T17:33:01.367Z,35.70
2018-05-01T17:35:27.654Z,36.10
2018-05-01T17:37:53.946Z,36.10
2018-05-01T17:40:20.978Z,34.90
2018-05-01T17:42:47.291Z,34.90
2018-05-01T17:45:13.556Z,35.60
2018-05-01T17:47:40.611Z,35.70
2018-05-01T17:50:07.635Z,36.00
2018-05-01T17:52:33.977Z,35.60
2018-05-01T17:55:00.303Z,35.70
2018-05-01T17:57:26.606Z,37.00
2018-05-01T17:59:52.906Z,36.50
2018-05-01T18:02:19.188Z,36.30
2018-05-01T18:04:45.490Z,36.50
2018-05-01T18:07:11.794Z,37.40
2018-05-01T18:09:38.162Z,38.20
2018-05-01T18:12:04.592Z,38.40
2018-05-01T18:14:30.999Z,37.90
2018-05-01T18:16:57.418Z,38.20
2018-05-01T18:19:24.454Z,39.20
2018-05-01T18:21:51.538Z,39.70
2018-05-01T18:24:17.871Z,39.00
2018-05-01T18:26:44.172Z,39.20
2018-05-01T18:29:11.213Z,39.60
2018-05-01T18:31:38.233Z,40.10
2018-05-01T18:34:04.591Z,40.10
2018-05-01T18:36:30.894Z,40.70
2018-05-01T18:38:57.208Z,41.30
2018-05-01T18:41:23.497Z,42.30
2018-05-01T18:43:49.801Z,42.00
2018-05-01T18:46:16.119Z,42.30
2018-05-01T18:48:42.410Z,43.80
2018-05-01T18:51:08.751Z,44.60
2018-05-01T18:53:35.125Z,45.00
2018-05-01T18:56:02.256Z,46.40
2018-05-01T18:58:29.345Z,46.50
2018-05-01T19:00:55.655Z,46.60
2018-05-01T19:03:22.737Z,47.50
2018-05-01T19:05:49.054Z,47.30
2018-05-01T19:08:15.367Z,47.50
2018-05-01T19:10:42.414Z,46.50
2018-05-01T19:13:09.529Z,47.60
2018-05-01T19:15:35.963Z,47.30
2018-05-01T19:18:02.249Z,47.60
2018-05-01T19:20:28.626Z,47.10
2018-05-01T19:22:54.918Z,47.70
2018-05-01T19:25:21.266Z,47.00
2018-05-01T19:27:47.676Z,47.20
2018-05-01T19:30:14.014Z,45.80
2018-05-01T19:32:40.383Z,47.10
2018-05-01T19:35:06.692Z,47.10
2018-05-01T19:37:33.037Z,48.40
2018-05-01T19:40:00.123Z,50.60
2018-05-01T19:42:26.464Z,50.40
2018-05-01T19:44:52.787Z,51.40
2018-05-01T19:47:19.841Z,50.40
2018-05-01T19:49:46.916Z,49.80
2018-05-01T19:52:13.231Z,49.40
2018-05-01T19:54:39.558Z,50.40
2018-05-01T19:57:06.579Z,50.50
2018-05-01T19:59:32.882Z,50.40
2018-05-01T20:01:59.187Z,51.20
2018-05-01T20:04:25.498Z,52.10
2018-05-01T20:06:51.814Z,51.90
2018-05-01T20:09:18.851Z,52.70
2018-05-01T20:11:45.535Z,51.10
2018-05-01T20:14:11.907Z,52.70
2018-05-01T20:16:38.211Z,51.70
2018-05-01T20:19:04.535Z,52.50
2018-05-01T20:21:30.862Z,52.80
2018-05-01T20:23:57.189Z,52.90
2018-05-01T20:26:23.463Z,53.00
2018-05-01T20:28:49.775Z,53.00
2018-05-01T20:31:16.071Z,54.20
2018-05-01T20:33:42.338Z,53.60
2018-05-01T20:36:08.655Z,53.50
2018-05-01T20:38:34.974Z,52.60
2018-05-01T20:41:01.300Z,53.00
2018-05-01T20:43:27.610Z,52.50
2018-05-01T20:45:53.963Z,52.50
2018-05-01T20:48:20.409Z,52.60
2018-05-01T20:50:46.726Z,52.00
2018-05-01T20:53:13.039Z,51.80
2018-05-01T20:58:19.120Z,54.50
2018-05-01T21:00:45.447Z,54.60
2018-05-01T21:03:11.768Z,54.10
2018-05-01T21:05:38.823Z,55.10
2018-05-01T21:08:05.844Z,54.80
2018-05-01T21:10:32.139Z,54.80
2018-05-01T21:12:58.461Z,56.40
2018-05-01T21:15:24.836Z,56.30
2018-05-01T21:17:51.226Z,57.80
2018-05-01T21:20:17.848Z,58.70
2018-05-01T21:22:44.131Z,58.00
2018-05-01T21:25:10.582Z,59.00
2018-05-01T21:27:37.638Z,60.30
2018-05-01T21:30:04.675Z,61.50
2018-05-01T21:32:30.970Z,61.30
2018-05-01T21:34:57.354Z,62.80
2018-05-01T21:37:24.546Z,63.60
2018-05-01T21:39:50.852Z,63.70
2018-05-01T21:42:17.895Z,65.40
2018-05-01T21:44:44.987Z,65.20
2018-05-01T21:47:11.283Z,65.00
2018-05-01T21:49:37.572Z,66.30
2018-05-01T21:52:03.879Z,66.20
2018-05-01T21:54:30.187Z,66.70
2018-05-01T21:56:56.488Z,66.50
2018-05-01T21:59:23.523Z,66.40
2018-05-01T22:01:50.918Z,66.70
2018-05-01T22:04:17.259Z,67.00
2018-05-01T22:06:43.543Z,66.80
2018-05-01T22:09:09.914Z,67.70
2018-05-01T22:11:36.211Z,68.50
2018-05-01T22:14:03.295Z,69.00
2018-05-01T22:16:29.583Z,68.90
2018-05-01T22:18:56.615Z,70.90
2018-05-01T22:21:23.677Z,71.30
2018-05-01T22:23:50.733Z,71.80
2018-05-01T22:26:17.803Z,73.30
2018-05-01T22:28:44.147Z,72.60
2018-05-01T22:31:11.195Z,74.40
2018-05-01T22:33:37.550Z,75.20
2018-05-01T22:36:03.932Z,78.10
2018-05-01T22:38:30.317Z,79.30
2018-05-01T22:40:56.656Z,80.30
2018-05-01T22:43:23.031Z,80.40
2018-05-01T22:45:50.542Z,80.20
2018-05-01T22:48:16.958Z,79.10
2018-05-01T22:50:43.322Z,79.90
2018-05-01T22:53:09.632Z,79.40
2018-05-01T22:55:35.988Z,79.90
2018-05-01T22:58:02.295Z,78.60
2018-05-01T23:00:28.646Z,79.90
2018-05-01T23:02:54.939Z,78.90
2018-05-01T23:05:21.287Z,80.30
2018-05-01T23:07:47.655Z,80.70
2018-05-01T23:10:14.009Z,80.70
2018-05-01T23:12:40.437Z,82.50
2018-05-01T23:15:06.730Z,82.20
2018-05-01T23:17:33.062Z,82.30
2018-05-01T23:19:59.367Z,82.00
2018-05-01T23:22:25.704Z,81.50
2018-05-01T23:24:52.011Z,81.20
2018-05-01T23:27:18.298Z,81.60
2018-05-01T23:29:44.589Z,82.10
2018-05-01T23:32:10.890Z,82.00
2018-05-01T23:34:37.207Z,82.80
2018-05-01T23:37:03.531Z,83.10
2018-05-01T23:39:29.871Z,84.30
2018-05-01T23:41:56.199Z,84.50
2018-05-01T23:44:22.536Z,85.90
2018-05-01T23:46:48.919Z,85.20
2018-05-01T23:49:15.266Z,86.70
2018-05-01T23:51:41.665Z,87.00
2018-05-01T23:54:07.927Z,86.90
2018-05-01T23:56:34.247Z,88.00
2018-05-01T23:59:00.575Z,88.50
